createdAt,value
2023-04-09T06:14:16.770Z,69.36
2023-04-09T06:16:45.989Z,69.53
2023-04-09T06:19:17.785Z,68.77
2023-04-09T06:21:46.882Z,68.57
2023-04-09T06:24:21.783Z,68.55
2023-04-09T06:26:56.807Z,68.11
2023-04-09T06:29:39.947Z,68.15
2023-04-09T06:32:10.518Z,67.59
2023-04-09T06:34:39.441Z,67.56
2023-04-09T06:37:15.269Z,66.89
2023-04-09T06:39:50.647Z,66.42
2023-04-09T06:43:00.841Z,66.31
2023-04-09T06:45:30.420Z,66.00
2023-04-09T06:48:42.859Z,65.54
2023-04-09T06:51:12.895Z,65.15
2023-04-09T06:53:42.779Z,64.50
2023-04-09T06:56:11.774Z,64.36
2023-04-09T06:58:40.972Z,63.89
2023-04-09T07:01:10.216Z,63.90
2023-04-09T07:04:06.213Z,63.59
2023-04-09T07:06:35.277Z,63.19
2023-04-09T07:09:25.373Z,63.34
2023-04-09T07:12:01.840Z,62.83
2023-04-09T07:14:31.152Z,62.19
2023-04-09T07:17:00.306Z,61.94
2023-04-09T07:20:06.652Z,61.79
2023-04-09T07:22:37.027Z,61.49
2023-04-09T07:25:29.933Z,61.20
2023-04-09T07:27:59.996Z,61.47
2023-04-09T07:31:05.528Z,60.88
2023-04-09T07:33:49.292Z,60.61
2023-04-09T07:36:18.308Z,59.88
2023-04-09T07:38:47.384Z,60.01
2023-04-09T07:41:16.800Z,59.92
2023-04-09T07:43:45.702Z,59.55
2023-04-09T07:46:33.611Z,59.21
2023-04-09T07:49:05.223Z,59.16
2023-04-09T07:51:50.519Z,58.89
2023-04-09T07:54:49.877Z,58.47
2023-04-09T07:57:18.634Z,58.43
2023-04-09T07:59:47.760Z,58.28
2023-04-09T08:02:16.599Z,57.74
2023-04-09T08:04:47.341Z,57.80
2023-04-09T08:07:22.204Z,57.70
2023-04-09T08:10:03.874Z,57.58
2023-04-09T08:12:39.428Z,57.50
2023-04-09T08:15:36.526Z,57.54
2023-04-09T08:18:11.808Z,57.10
2023-04-09T08:20:45.740Z,56.77
2023-04-09T08:23:15.123Z,56.39
2023-04-09T08:25:44.056Z,56.17
2023-04-09T08:28:13.033Z,55.54
2023-04-09T08:30:45.172Z,56.31
2023-04-09T08:33:15.810Z,56.33
2023-04-09T08:35:48.099Z,55.79
2023-04-09T08:38:16.761Z,55.37
2023-04-09T08:40:45.860Z,55.16
2023-04-09T08:43:16.849Z,54.49
2023-04-09T08:45:45.152Z,54.39
2023-04-09T08:48:19.229Z,54.32
2023-04-09T08:50:48.090Z,53.72
2023-04-09T08:53:19.752Z,53.89
2023-04-09T08:55:49.246Z,54.14
2023-04-09T08:58:19.280Z,53.80
2023-04-09T09:00:47.592Z,53.17
2023-04-09T09:03:24.650Z,52.49
2023-04-09T09:05:53.403Z,52.92
2023-04-09T09:12:01.821Z,51.29
2023-04-09T09:14:34.076Z,51.43
2023-04-09T09:17:07.015Z,50.19
2023-04-09T09:19:39.749Z,50.69
2023-04-09T09:22:13.677Z,50.15
2023-04-09T09:25:00.609Z,50.34
2023-04-09T09:27:44.444Z,49.18
2023-04-09T09:30:31.254Z,48.12
2023-04-09T09:33:14.480Z,46.72
2023-04-09T09:36:35.969Z,46.29
2023-04-09T09:39:19.642Z,44.90
2023-04-09T09:41:48.897Z,45.09
2023-04-09T09:44:36.774Z,46.09
2023-04-09T09:47:10.037Z,44.30
2023-04-09T09:49:39.177Z,44.50
2023-04-09T09:52:12.871Z,43.48
2023-04-09T09:55:00.500Z,43.00
2023-04-09T09:57:40.142Z,42.71
2023-04-09T10:00:16.025Z,44.24
2023-04-09T10:03:29.307Z,43.29
2023-04-09T10:06:02.518Z,41.73
2023-04-09T10:09:51.229Z,40.23
2023-04-09T10:12:24.693Z,40.55
2023-04-09T10:15:22.020Z,40.17
2023-04-09T10:21:37.147Z,37.70
2023-04-09T10:24:12.907Z,35.46
2023-04-09T10:26:45.345Z,35.95
2023-04-09T10:29:17.261Z,36.23
2023-04-09T10:32:07.935Z,35.90
2023-04-09T10:35:11.814Z,34.71
2023-04-09T10:37:50.044Z,35.68
2023-04-09T10:41:20.072Z,33.79
2023-04-09T10:44:35.935Z,33.07
2023-04-09T10:47:35.843Z,33.41
2023-04-09T10:50:43.624Z,33.06
2023-04-09T10:53:28.240Z,33.25
2023-04-09T10:56:49.672Z,33.47
2023-04-09T10:59:25.031Z,33.54
2023-04-09T11:02:00.058Z,32.84
2023-04-09T11:05:40.161Z,32.11
2023-04-09T11:08:22.740Z,31.98
2023-04-09T11:10:53.862Z,31.28
2023-04-09T11:13:22.865Z,32.00
2023-04-09T11:15:51.774Z,32.21
2023-04-09T11:18:34.725Z,30.54
2023-04-09T11:21:12.862Z,30.15
2023-04-09T11:23:43.708Z,30.23
2023-04-09T11:26:13.105Z,30.19
2023-04-09T11:29:23.556Z,29.48
2023-04-09T11:31:58.905Z,29.31
2023-04-09T11:34:47.340Z,29.03
2023-04-09T11:37:57.056Z,28.88
2023-04-09T11:40:29.906Z,28.42
2023-04-09T11:43:25.296Z,28.56
2023-04-09T11:45:56.502Z,27.59
2023-04-09T11:48:28.422Z,27.59
2023-04-09T11:50:57.565Z,28.49
2023-04-09T11:53:34.686Z,28.45
2023-04-09T11:56:04.202Z,27.94
2023-04-09T11:58:33.603Z,27.94
2023-04-09T12:01:09.825Z,27.73
2023-04-09T12:04:03.409Z,27.06
2023-04-09T12:06:33.319Z,26.32
2023-04-09T12:09:05.702Z,26.52
2023-04-09T12:11:47.191Z,25.45
2023-04-09T12:14:26.195Z,25.07
2023-04-09T12:16:57.587Z,25.71
2023-04-09T12:19:40.619Z,24.76
2023-04-09T12:22:09.494Z,24.66
2023-04-09T12:24:38.142Z,25.32
2023-04-09T12:27:28.401Z,24.65
2023-04-09T12:29:57.347Z,24.36
2023-04-09T12:32:26.505Z,24.09
2023-04-09T12:34:56.015Z,24.13
2023-04-09T12:37:25.580Z,24.48
2023-04-09T12:40:28.793Z,24.16
2023-04-09T12:43:57.860Z,23.34
2023-04-09T12:46:42.431Z,23.43
2023-04-09T12:49:36.126Z,23.22
2023-04-09T12:52:07.927Z,22.47
2023-04-09T12:54:53.892Z,23.37
2023-04-09T12:57:46.256Z,22.34
2023-04-09T13:00:16.497Z,23.05
2023-04-09T13:02:45.841Z,22.39
2023-04-09T13:05:25.725Z,21.46
2023-04-09T13:07:57.147Z,21.63
2023-04-09T13:10:26.730Z,22.03
2023-04-09T13:12:55.793Z,21.34
2023-04-09T13:15:24.990Z,20.62
2023-04-09T13:17:54.310Z,21.09
2023-04-09T13:20:23.549Z,21.01
2023-04-09T13:22:52.937Z,21.08
2023-04-09T13:25:24.286Z,21.83
2023-04-09T13:27:53.367Z,21.17
2023-04-09T13:30:42.861Z,20.59
2023-04-09T13:33:16.650Z,20.17
2023-04-09T13:35:46.211Z,20.67
2023-04-09T13:38:35.923Z,20.62
2023-04-09T13:41:30.748Z,20.85
2023-04-09T13:44:02.430Z,19.83
2023-04-09T13:46:36.931Z,20.03
2023-04-09T13:49:19.029Z,20.37
2023-04-09T13:51:50.465Z,20.09
2023-04-09T13:54:26.510Z,20.03
2023-04-09T13:57:31.907Z,20.77
2023-04-09T14:00:23.837Z,19.48
2023-04-09T14:03:30.974Z,19.61
2023-04-09T14:05:59.748Z,19.70
2023-04-09T14:08:33.095Z,20.05
2023-04-09T14:11:50.013Z,19.92
2023-04-09T14:14:26.759Z,19.67
2023-04-09T14:16:55.535Z,20.44
2023-04-09T14:19:25.595Z,20.54
2023-04-09T14:21:55.744Z,19.79
2023-04-09T14:24:25.606Z,19.62
2023-04-09T14:27:12.714Z,20.56
2023-04-09T14:30:09.512Z,20.09
2023-04-09T14:33:00.413Z,20.77
2023-04-09T14:36:01.507Z,19.61
2023-04-09T14:41:40.401Z,19.28
2023-04-09T14:44:09.424Z,19.96
2023-04-09T14:47:06.793Z,18.70
2023-04-09T14:49:50.923Z,19.09
2023-04-09T14:52:20.389Z,20.25
2023-04-09T14:54:49.351Z,19.97
2023-04-09T15:01:07.936Z,19.72
2023-04-09T15:04:02.377Z,19.67
2023-04-09T15:06:32.864Z,20.02
2023-04-09T15:09:02.205Z,19.73
2023-04-09T15:11:35.068Z,20.08
2023-04-09T15:14:04.348Z,21.07
2023-04-09T15:16:47.613Z,20.05
2023-04-09T15:19:16.680Z,20.65
2023-04-09T15:21:46.064Z,20.57
2023-04-09T15:24:15.320Z,20.76
2023-04-09T15:26:44.092Z,20.18
2023-04-09T15:29:42.685Z,20.31
2023-04-09T15:32:33.106Z,20.47
2023-04-09T15:35:02.535Z,20.82
2023-04-09T15:38:18.950Z,21.21
2023-04-09T15:41:12.132Z,20.80
2023-04-09T15:43:41.091Z,21.31
2023-04-09T15:46:13.289Z,22.51
2023-04-09T15:48:42.815Z,21.11
2023-04-09T15:51:12.172Z,22.34
2023-04-09T15:53:41.569Z,21.63
2023-04-09T15:56:16.739Z,20.86
2023-04-09T15:58:45.398Z,21.95
2023-04-09T16:01:16.781Z,21.94
2023-04-09T16:03:45.015Z,23.12
2023-04-09T16:06:41.016Z,23.56
2023-04-09T16:09:09.636Z,23.11
2023-04-09T16:11:39.033Z,23.94
2023-04-09T16:14:45.457Z,23.80
2023-04-09T16:17:14.606Z,23.86
2023-04-09T16:19:44.245Z,24.48
2023-04-09T16:22:13.857Z,25.34
2023-04-09T16:24:43.092Z,25.38
2023-04-09T16:27:20.738Z,25.56
2023-04-09T16:29:49.118Z,25.75
2023-04-09T16:32:42.023Z,26.22
2023-04-09T16:35:11.562Z,26.43
2023-04-09T16:41:19.173Z,26.50
2023-04-09T16:44:36.680Z,27.35
2023-04-09T16:47:06.746Z,26.84
2023-04-09T16:54:35.473Z,28.06
2023-04-09T16:57:12.112Z,27.87
2023-04-09T16:59:42.896Z,26.67
2023-04-09T17:02:12.327Z,26.69
2023-04-09T17:05:25.805Z,26.59
2023-04-09T17:07:54.991Z,27.52
2023-04-09T17:10:23.813Z,27.57
2023-04-09T17:13:42.425Z,27.61
2023-04-09T17:16:36.781Z,28.32
2023-04-09T17:19:06.315Z,27.97
2023-04-09T17:21:37.640Z,27.94
2023-04-09T17:24:19.453Z,28.32
2023-04-09T17:26:59.212Z,28.89
2023-04-09T17:29:55.760Z,29.51
2023-04-09T17:35:43.668Z,30.25
2023-04-09T17:38:30.686Z,29.93
2023-04-09T17:41:00.064Z,30.71
2023-04-09T17:44:09.684Z,30.53
2023-04-09T17:46:37.493Z,31.16
2023-04-09T17:49:10.456Z,31.09
2023-04-09T17:51:42.762Z,31.45
2023-04-09T17:54:10.193Z,31.32
2023-04-09T17:56:39.132Z,31.41
2023-04-09T17:59:07.333Z,31.17
2023-04-09T18:01:34.983Z,31.60
2023-04-09T18:04:02.825Z,31.51
2023-04-09T18:06:31.629Z,31.77
2023-04-09T18:08:59.210Z,32.14
2023-04-09T18:11:27.224Z,32.10
2023-04-09T18:13:54.727Z,32.25
2023-04-09T18:16:23.408Z,31.91
2023-04-09T18:18:51.128Z,32.01
2023-04-09T18:21:18.609Z,32.69
2023-04-09T18:23:46.595Z,32.54
2023-04-09T18:26:14.080Z,32.31
2023-04-09T18:28:42.014Z,32.84
2023-04-09T18:31:12.189Z,33.50
2023-04-09T18:33:39.814Z,33.07
2023-04-09T18:36:07.625Z,33.24
2023-04-09T18:38:35.132Z,34.05
2023-04-09T18:41:03.548Z,33.39
2023-04-09T18:43:31.037Z,33.32
2023-04-09T18:45:58.477Z,33.42
2023-04-09T18:48:26.129Z,33.64
2023-04-09T18:50:53.646Z,33.77
2023-04-09T18:53:21.352Z,33.95
2023-04-09T18:55:48.865Z,34.27
2023-04-09T18:58:16.445Z,34.17
2023-04-09T19:00:43.979Z,34.38
2023-04-09T19:03:12.272Z,34.86
2023-04-09T19:05:40.281Z,35.45
2023-04-09T19:08:08.006Z,35.48
2023-04-09T19:10:36.183Z,35.17
2023-04-09T19:13:04.169Z,35.59
2023-04-09T19:15:31.781Z,35.53
2023-04-09T19:17:59.308Z,35.26
2023-04-09T19:20:27.317Z,35.39
2023-04-09T19:22:56.676Z,35.70
2023-04-09T19:25:24.265Z,35.60
2023-04-09T19:27:53.709Z,35.50
2023-04-09T19:30:21.395Z,35.18
2023-04-09T19:32:48.982Z,35.95
2023-04-09T19:35:16.994Z,36.40
2023-04-09T19:37:44.998Z,35.82
2023-04-09T19:40:15.666Z,36.21
2023-04-09T19:42:43.334Z,35.93
2023-04-09T19:45:11.957Z,36.45
2023-04-09T19:47:39.634Z,36.40
2023-04-09T19:50:07.651Z,36.11
2023-04-09T19:52:35.157Z,37.22
2023-04-09T19:55:04.439Z,36.61
2023-04-09T19:57:31.993Z,36.73
2023-04-09T19:59:59.436Z,37.25
2023-04-09T20:02:27.064Z,37.13
2023-04-09T20:04:54.849Z,37.43
2023-04-09T20:07:22.467Z,37.52
2023-04-09T20:09:50.088Z,37.65
2023-04-09T20:12:17.757Z,36.92
2023-04-09T20:14:46.010Z,37.04
2023-04-09T20:17:13.622Z,37.47
2023-04-09T20:19:41.101Z,37.50
2023-04-09T20:22:08.620Z,37.40
2023-04-09T20:24:36.863Z,37.18
2023-04-09T20:27:04.528Z,37.65
2023-04-09T20:29:32.053Z,37.55
2023-04-09T20:31:59.581Z,37.79
2023-04-09T20:34:28.212Z,37.74
2023-04-09T20:36:56.038Z,38.04
2023-04-09T20:39:26.820Z,38.28
2023-04-09T20:41:56.721Z,38.33
2023-04-09T20:44:24.644Z,38.53
2023-04-09T20:46:52.138Z,38.62
2023-04-09T20:49:19.740Z,38.99
2023-04-09T20:51:47.742Z,38.74
2023-04-09T20:54:15.592Z,39.63
2023-04-09T20:56:44.835Z,39.38
2023-04-09T20:59:12.444Z,39.53
2023-04-09T21:01:40.454Z,39.54
2023-04-09T21:04:08.975Z,39.70
2023-04-09T21:06:36.472Z,40.07
2023-04-09T21:09:03.984Z,40.34
2023-04-09T21:11:31.757Z,40.30
2023-04-09T21:13:59.512Z,40.88
2023-04-09T21:16:28.727Z,41.11
2023-04-09T21:18:56.693Z,40.55
2023-04-09T21:21:27.424Z,41.11
2023-04-09T21:23:54.962Z,41.83
2023-04-09T21:26:22.488Z,42.08
2023-04-09T21:28:50.667Z,42.48
2023-04-09T21:31:18.342Z,42.29
2023-04-09T21:33:46.179Z,42.26
2023-04-09T21:36:13.909Z,42.94
2023-04-09T21:38:41.592Z,43.10
2023-04-09T21:41:09.110Z,43.66
2023-04-09T21:43:38.483Z,43.07
2023-04-09T21:46:06.178Z,44.06
2023-04-09T21:48:33.749Z,43.90
2023-04-09T21:51:01.292Z,44.42
2023-04-09T21:53:31.534Z,43.77
2023-04-09T21:55:59.116Z,43.76
2023-04-09T21:58:26.547Z,44.73
2023-04-09T22:00:53.979Z,44.45
2023-04-09T22:03:22.667Z,44.66
2023-04-09T22:05:50.470Z,45.21
2023-04-09T22:08:18.459Z,45.73
2023-04-09T22:10:46.329Z,44.96
2023-04-09T22:13:13.836Z,46.00
2023-04-09T22:15:41.985Z,45.32
2023-04-09T22:18:09.580Z,45.19
2023-04-09T22:20:37.225Z,44.67
2023-04-09T22:23:04.698Z,44.69
2023-04-09T22:25:35.137Z,44.71
2023-04-09T22:28:02.770Z,44.87
2023-04-09T22:30:30.547Z,45.22
2023-04-09T22:32:58.097Z,44.33
2023-04-09T22:35:25.706Z,44.31
2023-04-09T22:37:53.425Z,44.61
2023-04-09T22:40:21.115Z,44.50
2023-04-09T22:42:48.798Z,44.92
2023-04-09T22:45:16.443Z,44.99
2023-04-09T22:47:43.989Z,45.06
2023-04-09T22:50:13.549Z,44.94
2023-04-09T22:52:41.074Z,44.95
2023-04-09T22:55:10.295Z,45.09
2023-04-09T22:57:38.488Z,45.13
2023-04-09T23:00:08.600Z,45.56
2023-04-09T23:02:37.084Z,45.45
2023-04-09T23:05:05.154Z,45.13
2023-04-09T23:07:32.758Z,45.41
2023-04-09T23:10:01.628Z,45.33
2023-04-09T23:12:29.099Z,45.59
2023-04-09T23:14:56.563Z,45.60
2023-04-09T23:17:24.701Z,45.61
2023-04-09T23:19:54.947Z,45.47
2023-04-09T23:22:24.358Z,45.65
2023-04-09T23:24:51.891Z,45.83
2023-04-09T23:27:19.798Z,45.35
2023-04-09T23:29:47.233Z,45.54
2023-04-09T23:32:14.732Z,45.38
2023-04-09T23:34:42.167Z,45.86
2023-04-09T23:37:10.348Z,45.61
2023-04-09T23:39:37.903Z,45.58
2023-04-09T23:42:05.914Z,46.06
2023-04-09T23:44:33.580Z,46.59
2023-04-09T23:47:01.586Z,46.20
2023-04-09T23:49:38.699Z,46.51
2023-04-09T23:52:12.170Z,46.93
2023-04-09T23:54:51.605Z,47.13
2023-04-09T23:57:25.482Z,46.29
2023-04-09T23:59:58.257Z,46.88
